Nordic Stockholm — 2DKI2 — position and weather

sailwx.info

Track history (hours):
 
Tides and Currents Weather Stations Pressure Air Temp Water Temp Dewpoint Dewpoint Depression Visibility Wind Speed Wind Dir Waves Ship Positions

Nordic Stockholm

Last reported at 2014-Jul-31 06:33 UTC. Time now 2014-Aug-02 00:31 UTC.
Position S 28°47' E 032°27'.

Length 180 m; draft 10.4 m.

Type: Cargo ship. MMSI: 235079725.

Date/timePositionNaut miles runAvg speedWind from/ knotsBaromVisibWave heightAir tempDewpointWater temp
2014-Jul-31 06:33S 28°47' E 032°27'1511.8
2014-Jul-31 05:16S 28°58' E 032°15'811.2
2014-Jul-31 04:33S 29°04' E 032°08'1110.8
2014-Jul-31 03:33S 29°11' E 031°60'1211.5
2014-Jul-31 02:33S 29°19' E 031°50'1212.1
2014-Jul-31 01:33S 29°28' E 031°40'1312.7
2014-Jul-31 00:33S 29°36' E 031°29'1313.0
2014-Jul-30 23:33S 29°45' E 031°18'1212.1
2014-Jul-30 22:33S 29°54' E 031°09'3 2.6
2014-Jul-30 21:33S 29°56' E 031°07'1110.8
2014-Jul-30 20:33S 30°05' E 030°60'1513.0
2014-Jul-30 19:26S 30°17' E 030°51'1213.3
2014-Jul-30 18:33S 30°28' E 030°45'1413.8
2014-Jul-30 17:33S 30°40' E 030°37'1414.0
2014-Jul-30 16:33S 30°52' E 030°29'  
Track history (hours):
 
Tides and Currents Weather Stations Pressure Air Temp Water Temp Dewpoint Dewpoint Depression Visibility Wind Speed Wind Dir Waves Ship Positions

Nordic Stockholm

Last reported at 2014-Jul-31 06:33 UTC. Time now 2014-Aug-02 00:31 UTC.
Position S 28°47' E 032°27'.

Length 180 m; draft 10.4 m.

Type: Cargo ship. MMSI: 235079725.

Date/timePositionNaut miles runAvg speedWind from/ knotsBaromVisibWave heightAir tempDewpointWater temp
2014-Jul-31 06:33S 28°47' E 032°27'1511.8
2014-Jul-31 05:16S 28°58' E 032°15'811.2
2014-Jul-31 04:33S 29°04' E 032°08'1110.8
2014-Jul-31 03:33S 29°11' E 031°60'1211.5
2014-Jul-31 02:33S 29°19' E 031°50'1212.1
2014-Jul-31 01:33S 29°28' E 031°40'1312.7
2014-Jul-31 00:33S 29°36' E 031°29'1313.0
2014-Jul-30 23:33S 29°45' E 031°18'1212.1
2014-Jul-30 22:33S 29°54' E 031°09'3 2.6
2014-Jul-30 21:33S 29°56' E 031°07'1110.8
2014-Jul-30 20:33S 30°05' E 030°60'1513.0
2014-Jul-30 19:26S 30°17' E 030°51'1213.3
2014-Jul-30 18:33S 30°28' E 030°45'1413.8
2014-Jul-30 17:33S 30°40' E 030°37'1414.0
2014-Jul-30 16:33S 30°52' E 030°29'  

Dump ship's entire track history